Time;durP1;ratioP1;P1;durP2;ratioP2;P2;SDS_P1;SDS_P2;PMS_P1;PMS_P2;Temp;Humidity;BMP_temperature;BMP_pressure;BME280_temperature;BME280_humidity;BME280_pressure;Samples;Min_cycle;Max_cycle;Signal;HPM_P1;HPM_P2
2022/06/01 00:01:20;;;;;;;8.80;3.20;;;23.60;96.70;;;;;;4993366;28;20038;-93
2022/06/01 00:03:49;;;;;;;8.23;2.80;;;23.70;96.70;;;;;;5008462;28;20050;-89
2022/06/01 00:06:17;;;;;;;10.32;3.50;;;23.90;96.70;;;;;;5005770;28;20050;-90
2022/06/01 00:08:45;;;;;;;7.50;3.15;;;23.80;96.70;;;;;;4992151;28;20042;-90
2022/06/01 00:11:13;;;;;;;6.68;2.83;;;23.70;96.70;;;;;;5008922;28;20117;-92
2022/06/01 00:13:43;;;;;;;10.95;3.80;;;23.80;96.70;;;;;;4992617;28;20054;-91
2022/06/01 00:16:11;;;;;;;6.93;3.53;;;23.80;96.70;;;;;;4993287;28;20045;-92
2022/06/01 00:18:40;;;;;;;5.03;2.60;;;23.60;96.70;;;;;;4992508;28;20057;-91
2022/06/01 00:21:08;;;;;;;10.07;3.28;;;23.80;96.70;;;;;;5001990;28;20124;-90
2022/06/01 00:23:36;;;;;;;4.97;2.55;;;23.90;96.70;;;;;;4992140;28;20061;-91
2022/06/01 00:26:04;;;;;;;9.43;2.65;;;23.70;96.70;;;;;;4988281;28;20042;-83
2022/06/01 00:28:33;;;;;;;7.28;3.00;;;23.50;96.70;;;;;;5005755;28;20045;-83
2022/06/01 00:31:03;;;;;;;6.13;2.80;;;23.50;96.70;;;;;;4989476;28;20054;-83
2022/06/01 00:33:32;;;;;;;6.55;2.70;;;23.40;96.70;;;;;;4991936;28;20105;-88
2022/06/01 00:36:00;;;;;;;5.57;2.55;;;23.40;96.70;;;;;;4995902;28;20061;-92
2022/06/01 00:38:28;;;;;;;6.07;2.58;;;23.60;96.70;;;;;;5010781;28;20046;-90
2022/06/01 00:40:56;;;;;;;6.88;2.70;;;23.50;96.70;;;;;;5014069;28;20579;-91
2022/06/01 00:43:26;;;;;;;8.88;2.85;;;23.50;96.70;;;;;;5007626;28;20171;-90
2022/06/01 00:45:54;;;;;;;7.28;2.65;;;23.30;96.70;;;;;;4995089;28;20369;-91
2022/06/01 00:48:28;;;;;;;5.47;1.98;;;23.20;96.70;;;;;;5007538;28;20042;-91
2022/06/01 00:50:56;;;;;;;4.05;1.88;;;23.30;96.70;;;;;;4999465;28;20087;-90
2022/06/01 00:53:27;;;;;;;5.18;2.10;;;23.40;96.70;;;;;;5004269;28;20045;-88
2022/06/01 00:55:58;;;;;;;8.48;2.70;;;23.40;96.70;;;;;;5012692;28;20045;-88
2022/06/01 00:58:28;;;;;;;3.97;2.08;;;23.40;96.70;;;;;;5006656;28;20088;-91
2022/06/01 01:00:58;;;;;;;8.90;2.30;;;23.20;96.70;;;;;;5001513;28;20435;-88
2022/06/01 01:03:33;;;;;;;9.13;2.42;;;23.10;96.70;;;;;;4998495;28;20046;-90
2022/06/01 01:06:16;;;;;;;4.13;1.87;;;23.20;96.70;;;;;;4983725;28;20117;-89
2022/06/01 01:08:47;;;;;;;6.93;2.35;;;23.10;96.70;;;;;;5007062;28;20064;-88
2022/06/01 01:11:19;;;;;;;5.63;2.20;;;23.20;96.70;;;;;;4995223;28;20056;-89
2022/06/01 01:13:50;;;;;;;5.22;2.13;;;23.20;96.70;;;;;;5014184;28;21084;-92
2022/06/01 01:16:29;;;;;;;5.03;2.30;;;23.30;96.70;;;;;;5000143;28;20065;-83
2022/06/01 01:18:59;;;;;;;6.43;2.15;;;23.20;96.70;;;;;;4996915;28;20057;-83
2022/06/01 01:21:36;;;;;;;8.32;2.55;;;23.30;96.70;;;;;;5009891;28;20046;-83
2022/06/01 01:24:15;;;;;;;6.53;2.60;;;23.10;96.70;;;;;;4989451;28;20185;-83
2022/06/01 01:26:49;;;;;;;4.85;2.25;;;22.80;96.70;;;;;;4988750;28;20057;-84
2022/06/01 01:29:30;;;;;;;6.93;2.30;;;23.00;96.70;;;;;;5009722;28;20045;-83
2022/06/01 01:31:58;;;;;;;6.78;2.05;;;23.00;96.70;;;;;;5006798;28;20037;-83
2022/06/01 01:34:28;;;;;;;6.50;2.47;;;23.00;96.70;;;;;;5005595;28;20073;-83
2022/06/01 01:37:00;;;;;;;5.20;2.10;;;23.00;96.70;;;;;;4979974;28;20066;-83
2022/06/01 01:39:30;;;;;;;5.00;2.58;;;23.00;96.70;;;;;;5000647;28;20107;-85
2022/06/01 01:42:00;;;;;;;4.50;2.03;;;22.80;96.70;;;;;;5011108;28;20054;-84
2022/06/01 01:44:30;;;;;;;6.68;2.50;;;22.80;96.70;;;;;;5012908;28;20096;-84
2022/06/01 01:47:01;;;;;;;5.75;2.55;;;22.70;96.70;;;;;;4994988;28;20047;-84
2022/06/01 01:49:32;;;;;;;6.07;2.05;;;22.70;96.70;;;;;;5004479;28;20484;-89
2022/06/01 01:52:02;;;;;;;5.30;2.00;;;22.70;96.70;;;;;;5007072;28;20056;-90
2022/06/01 01:54:42;;;;;;;3.75;1.60;;;22.80;96.70;;;;;;5024305;28;20050;-88
2022/06/01 01:57:29;;;;;;;6.25;2.20;;;22.70;96.70;;;;;;5008844;28;20041;-87
2022/06/01 02:00:09;;;;;;;6.72;2.40;;;22.60;96.70;;;;;;5028774;28;20546;-88
2022/06/01 02:02:44;;;;;;;8.45;2.33;;;22.60;96.70;;;;;;5019701;28;20900;-87
2022/06/01 02:08:22;;;;;;;6.88;1.70;;;22.60;96.70;;;;;;5002435;28;20045;-90
2022/06/01 02:13:50;;;;;;;7.82;2.50;;;22.70;96.70;;;;;;4990757;28;20042;-92
2022/06/01 02:16:20;;;;;;;5.30;1.92;;;22.70;96.70;;;;;;5008304;28;20053;-93
2022/06/01 02:18:50;;;;;;;7.28;2.17;;;22.60;96.70;;;;;;5000723;28;20088;-91
2022/06/01 02:21:24;;;;;;;6.70;2.20;;;22.60;96.70;;;;;;5004802;28;20125;-90
2022/06/01 02:23:53;;;;;;;5.63;1.90;;;22.60;96.70;;;;;;4997158;28;20068;-89
2022/06/01 02:26:22;;;;;;;5.30;1.70;;;22.40;96.70;;;;;;5008245;28;20046;-84
2022/06/01 02:28:57;;;;;;;4.38;1.95;;;22.40;96.70;;;;;;5002368;28;20089;-85
2022/06/01 02:31:26;;;;;;;7.97;1.98;;;22.40;96.70;;;;;;5015592;28;20165;-84
2022/06/01 02:33:54;;;;;;;4.78;2.30;;;22.60;96.70;;;;;;5007703;28;20040;-84
2022/06/01 02:36:24;;;;;;;4.45;1.85;;;22.50;96.70;;;;;;5009547;28;20754;-84
2022/06/01 02:38:55;;;;;;;4.57;1.90;;;22.40;96.70;;;;;;5014992;28;20111;-84
2022/06/01 02:44:11;;;;;;;6.50;2.40;;;22.50;96.70;;;;;;4991293;28;20128;-84
2022/06/01 02:46:38;;;;;;;5.95;2.10;;;22.30;96.70;;;;;;5009961;28;20120;-84
2022/06/01 02:49:06;;;;;;;5.53;2.30;;;22.10;96.70;;;;;;4990869;28;20389;-84
2022/06/01 02:51:34;;;;;;;7.40;2.40;;;22.30;96.70;;;;;;4990658;28;20050;-84
2022/06/01 02:54:02;;;;;;;8.52;2.35;;;22.40;96.70;;;;;;4981593;28;20052;-84
2022/06/01 02:56:30;;;;;;;5.35;2.42;;;22.30;96.70;;;;;;5006978;28;20038;-85
2022/06/01 02:59:01;;;;;;;6.25;2.13;;;22.30;96.70;;;;;;5005417;28;20078;-84
2022/06/01 03:01:31;;;;;;;7.05;1.73;;;22.20;96.70;;;;;;5010835;28;20129;-84
2022/06/01 03:03:59;;;;;;;6.82;1.80;;;22.10;96.70;;;;;;4984552;28;20085;-84
2022/06/01 03:06:27;;;;;;;6.82;2.10;;;22.10;96.70;;;;;;5000258;28;20052;-84
2022/06/01 03:09:15;;;;;;;7.93;1.70;;;22.10;96.70;;;;;;5003809;28;20041;-84
2022/06/01 03:11:43;;;;;;;5.63;2.17;;;22.10;96.70;;;;;;5010945;28;20563;-84
2022/06/01 03:14:11;;;;;;;5.63;2.05;;;22.00;96.70;;;;;;5013144;28;20499;-84
2022/06/01 03:16:40;;;;;;;4.90;2.22;;;21.90;96.70;;;;;;4982904;28;20045;-84
2022/06/01 03:19:08;;;;;;;5.60;2.38;;;21.90;96.70;;;;;;4990490;28;20057;-84
2022/06/01 03:21:36;;;;;;;7.07;2.17;;;21.90;96.70;;;;;;5006529;28;20046;-84
2022/06/01 03:24:05;;;;;;;7.30;2.40;;;22.00;96.70;;;;;;5018482;28;20057;-84
2022/06/01 03:26:33;;;;;;;6.40;2.20;;;22.00;96.70;;;;;;5015841;28;20097;-84
2022/06/01 03:29:00;;;;;;;6.30;2.40;;;22.10;96.70;;;;;;4992910;28;20042;-85
2022/06/01 03:31:28;;;;;;;9.57;2.40;;;22.10;96.70;;;;;;5011214;28;20046;-84
2022/06/01 03:33:58;;;;;;;7.65;2.17;;;22.00;96.70;;;;;;5011483;28;20042;-84
2022/06/01 03:36:26;;;;;;;4.40;2.08;;;21.90;96.70;;;;;;5018320;28;20088;-84
2022/06/01 03:38:54;;;;;;;6.18;2.25;;;21.80;96.70;;;;;;5010748;28;20072;-84
2022/06/01 03:41:23;;;;;;;6.90;2.45;;;21.80;96.70;;;;;;5022040;28;20548;-84
2022/06/01 03:46:36;;;;;;;4.38;2.08;;;21.90;96.70;;;;;;5006447;28;20042;-83
2022/06/01 03:49:06;;;;;;;5.85;2.53;;;22.00;96.70;;;;;;5007142;28;20056;-84
2022/06/01 03:51:33;;;;;;;5.90;1.98;;;21.90;96.70;;;;;;4993264;28;20045;-84
2022/06/01 03:54:01;;;;;;;8.60;2.20;;;21.80;96.70;;;;;;5010646;28;20121;-84
2022/06/01 03:56:30;;;;;;;5.28;2.40;;;22.00;96.70;;;;;;5009412;28;20054;-84
2022/06/01 03:58:58;;;;;;;3.30;2.03;;;22.00;96.70;;;;;;5008507;28;20050;-84
2022/06/01 04:01:26;;;;;;;6.32;2.70;;;21.80;96.70;;;;;;5014294;28;20519;-84
2022/06/01 04:03:54;;;;;;;4.55;2.47;;;21.90;96.70;;;;;;5018324;28;20085;-84
2022/06/01 04:06:23;;;;;;;6.47;2.55;;;21.70;96.70;;;;;;4977001;28;20046;-84
2022/06/01 04:08:51;;;;;;;6.07;2.13;;;21.90;96.70;;;;;;4995319;28;20060;-84
2022/06/01 04:11:19;;;;;;;7.18;2.35;;;22.00;96.70;;;;;;5002239;28;20049;-84
2022/06/01 04:13:47;;;;;;;7.32;2.47;;;22.00;96.70;;;;;;5024631;28;20628;-84
2022/06/01 04:16:18;;;;;;;7.35;2.88;;;22.00;96.70;;;;;;5008098;28;20038;-85
2022/06/01 04:18:47;;;;;;;5.47;2.13;;;21.80;96.70;;;;;;5023823;28;20049;-84
2022/06/01 04:21:30;;;;;;;7.88;3.00;;;21.70;96.70;;;;;;5003516;28;20048;-84
2022/06/01 04:24:01;;;;;;;9.27;2.53;;;21.70;96.70;;;;;;5005654;28;20042;-85
2022/06/01 04:26:29;;;;;;;6.30;2.28;;;21.70;96.70;;;;;;4981330;28;20058;-84
2022/06/01 04:28:57;;;;;;;6.55;2.53;;;21.70;96.70;;;;;;5017549;28;20076;-84
2022/06/01 04:31:26;;;;;;;7.25;2.15;;;21.60;96.70;;;;;;4992809;28;20232;-84
2022/06/01 04:33:54;;;;;;;6.15;2.70;;;21.60;96.70;;;;;;5010398;28;20104;-84
2022/06/01 04:36:22;;;;;;;6.18;2.70;;;21.80;96.70;;;;;;4993548;28;20092;-84
2022/06/01 04:38:51;;;;;;;7.93;3.00;;;21.70;96.70;;;;;;5023702;28;20434;-84
2022/06/01 04:41:19;;;;;;;5.45;2.55;;;21.60;96.70;;;;;;4999078;28;20038;-84
2022/06/01 04:43:47;;;;;;;5.88;2.67;;;21.60;96.70;;;;;;5009949;28;20034;-84
2022/06/01 04:46:15;;;;;;;6.55;2.70;;;21.50;96.70;;;;;;4990996;28;20046;-84
2022/06/01 04:48:43;;;;;;;9.90;2.60;;;21.50;96.70;;;;;;5016209;28;20069;-84
2022/06/01 04:51:11;;;;;;;7.03;2.58;;;21.50;96.70;;;;;;5010812;28;20053;-84
2022/06/01 04:53:42;;;;;;;10.70;3.40;;;21.50;96.70;;;;;;5009639;28;20137;-84
2022/06/01 04:56:12;;;;;;;6.00;2.92;;;21.60;96.70;;;;;;5015293;28;20106;-92
2022/06/01 04:58:41;;;;;;;8.70;3.00;;;21.70;96.70;;;;;;5019207;28;20531;-92
2022/06/01 05:01:08;;;;;;;8.80;3.47;;;22.00;96.70;;;;;;5002411;28;20049;-84
2022/06/01 05:03:36;;;;;;;8.25;3.20;;;22.10;96.70;;;;;;4987145;28;20069;-84
2022/06/01 05:06:04;;;;;;;6.70;3.08;;;22.20;96.70;;;;;;4997513;28;20046;-84
2022/06/01 05:08:31;;;;;;;8.18;3.45;;;22.10;96.70;;;;;;5012383;28;20054;-84
2022/06/01 05:10:59;;;;;;;8.55;3.40;;;22.00;96.70;;;;;;5009721;28;20049;-84
2022/06/01 05:13:28;;;;;;;9.13;3.40;;;21.90;96.70;;;;;;4984373;28;20076;-84
2022/06/01 05:15:57;;;;;;;9.73;3.10;;;21.90;96.70;;;;;;4992266;28;20049;-85
2022/06/01 05:18:26;;;;;;;7.43;2.90;;;22.00;96.70;;;;;;5006345;28;20053;-83
2022/06/01 05:20:54;;;;;;;12.77;4.00;;;22.10;96.70;;;;;;4992545;28;20041;-84
2022/06/01 05:23:24;;;;;;;11.10;3.80;;;22.10;96.70;;;;;;4995505;28;20136;-84
2022/06/01 05:25:53;;;;;;;6.68;3.28;;;22.10;96.70;;;;;;4983866;28;20491;-84
2022/06/01 05:28:23;;;;;;;7.90;3.15;;;22.10;96.70;;;;;;4995338;28;20598;-84
2022/06/01 05:30:56;;;;;;;6.40;2.88;;;22.10;96.70;;;;;;5001439;28;20512;-84
2022/06/01 05:33:24;;;;;;;8.18;3.53;;;22.10;96.70;;;;;;5013211;28;20060;-84
2022/06/01 05:35:52;;;;;;;6.68;2.92;;;22.10;96.70;;;;;;5008227;28;20053;-84
2022/06/01 05:38:20;;;;;;;4.25;2.60;;;22.20;96.70;;;;;;4991879;28;20152;-84
2022/06/01 05:40:48;;;;;;;6.82;3.15;;;22.20;96.70;;;;;;4998336;28;20125;-85
2022/06/01 05:43:17;;;;;;;6.88;3.72;;;22.30;96.70;;;;;;5007664;28;20058;-84
2022/06/01 05:45:45;;;;;;;7.82;3.40;;;22.30;96.70;;;;;;5016276;28;20041;-84
2022/06/01 05:48:17;;;;;;;9.90;3.40;;;22.30;96.70;;;;;;5008392;28;20050;-81
2022/06/01 05:50:45;;;;;;;11.43;3.78;;;22.30;96.70;;;;;;5003330;28;20053;-81
2022/06/01 05:53:13;;;;;;;7.63;4.10;;;22.40;96.70;;;;;;5006216;28;20199;-85
2022/06/01 05:55:41;;;;;;;10.73;4.20;;;22.50;96.70;;;;;;5016280;28;20042;-87
2022/06/01 05:58:14;;;;;;;11.00;5.03;;;22.60;96.70;;;;;;5008994;28;20080;-91
2022/06/01 06:00:46;;;;;;;12.55;4.55;;;22.50;96.70;;;;;;5023439;28;20137;-88
2022/06/01 06:03:18;;;;;;;10.23;4.85;;;22.50;96.70;;;;;;5010648;28;20462;-87
2022/06/01 06:06:12;;;;;;;15.32;6.00;;;22.70;96.70;;;;;;5008771;28;20100;-87
2022/06/01 06:08:42;;;;;;;20.95;8.48;;;22.90;96.70;;;;;;5014917;28;20047;-87
2022/06/01 06:11:16;;;;;;;21.65;8.38;;;23.00;96.70;;;;;;5007467;28;20048;-87
2022/06/01 06:13:45;;;;;;;12.20;6.00;;;23.00;96.70;;;;;;4991969;28;20065;-86
2022/06/01 06:16:14;;;;;;;13.52;5.72;;;23.20;96.70;;;;;;5004674;28;20050;-86
2022/06/01 06:18:44;;;;;;;14.52;5.55;;;23.20;96.70;;;;;;5000913;28;20042;-88
2022/06/01 06:21:12;;;;;;;13.70;4.85;;;23.10;96.70;;;;;;4994579;28;20133;-87
2022/06/01 06:23:40;;;;;;;16.02;5.63;;;23.10;96.70;;;;;;5008568;28;20531;-86
2022/06/01 06:26:10;;;;;;;12.10;5.95;;;23.10;96.70;;;;;;5005082;28;20054;-85
2022/06/01 06:28:39;;;;;;;12.18;5.57;;;23.00;96.70;;;;;;4999038;28;20050;-84
2022/06/01 06:31:07;;;;;;;15.02;5.65;;;23.00;96.70;;;;;;5002120;28;20046;-85
2022/06/01 06:33:35;;;;;;;13.10;5.18;;;22.90;96.70;;;;;;5000142;28;20046;-84
2022/06/01 06:36:07;;;;;;;11.77;4.90;;;22.90;96.70;;;;;;5012526;28;20058;-85
2022/06/01 06:38:36;;;;;;;8.65;5.05;;;22.90;96.70;;;;;;4962714;28;20100;-85
2022/06/01 06:41:05;;;;;;;12.68;5.45;;;22.80;96.70;;;;;;4998816;28;20038;-84
2022/06/01 06:43:35;;;;;;;9.77;4.85;;;22.80;96.70;;;;;;5006937;28;20069;-86
2022/06/01 06:46:05;;;;;;;15.10;6.10;;;22.90;96.70;;;;;;4990387;28;20049;-83
2022/06/01 06:48:34;;;;;;;12.43;5.85;;;23.00;96.70;;;;;;4997756;28;20046;-84
2022/06/01 06:51:01;;;;;;;15.20;6.55;;;23.00;96.70;;;;;;5008500;28;20091;-83
2022/06/01 06:53:31;;;;;;;10.40;5.05;;;23.10;96.70;;;;;;5015853;28;20049;-84
2022/06/01 06:55:59;;;;;;;14.32;6.07;;;23.10;96.70;;;;;;4978562;28;20602;-85
2022/06/01 06:58:27;;;;;;;10.07;4.65;;;23.20;96.70;;;;;;5015854;28;20042;-86
2022/06/01 07:00:55;;;;;;;10.57;5.63;;;23.20;96.70;;;;;;4986585;28;20043;-84
2022/06/01 07:03:23;;;;;;;12.70;5.75;;;23.20;96.70;;;;;;5002203;28;20045;-85
2022/06/01 07:06:13;;;;;;;13.30;6.53;;;23.20;96.70;;;;;;5011049;28;20492;-84
2022/06/01 07:08:44;;;;;;;9.30;6.03;;;23.20;96.70;;;;;;5010611;28;20065;-84
2022/06/01 07:11:13;;;;;;;11.00;5.93;;;23.20;96.70;;;;;;5011748;28;20295;-84
2022/06/01 07:13:42;;;;;;;11.48;6.55;;;23.20;96.70;;;;;;4993723;28;20085;-85
2022/06/01 07:16:12;;;;;;;9.85;5.60;;;23.30;96.70;;;;;;5003740;28;20037;-85
2022/06/01 07:18:42;;;;;;;8.60;6.15;;;23.40;96.70;;;;;;5000689;28;20205;-85
2022/06/01 07:21:10;;;;;;;13.60;6.53;;;23.40;96.70;;;;;;5017466;28;20081;-85
2022/06/01 07:23:38;;;;;;;10.38;5.60;;;23.50;96.70;;;;;;5007846;28;20420;-85
2022/06/01 07:26:09;;;;;;;10.68;6.13;;;23.60;96.70;;;;;;5005031;28;20048;-85
2022/06/01 07:28:38;;;;;;;13.15;6.97;;;23.70;96.70;;;;;;5020299;28;20056;-84
2022/06/01 07:31:06;;;;;;;10.65;6.03;;;23.60;96.70;;;;;;4989842;28;20104;-85
2022/06/01 07:33:35;;;;;;;13.63;6.70;;;23.70;96.70;;;;;;5016882;28;20045;-87
2022/06/01 07:36:07;;;;;;;13.95;6.18;;;23.70;96.70;;;;;;4982175;28;20108;-86
2022/06/01 07:44:16;;;;;;;12.63;5.88;;;23.70;96.70;;;;;;5001705;28;20466;-86
2022/06/01 07:46:44;;;;;;;9.25;5.43;;;23.70;96.70;;;;;;5010745;28;20145;-86
2022/06/01 07:49:15;;;;;;;11.15;5.85;;;23.80;96.70;;;;;;5007286;28;20705;-86
2022/06/01 07:52:22;;;;;;;10.82;5.70;;;24.00;96.70;;;;;;5002454;28;20396;-85
2022/06/01 07:54:54;;;;;;;;;;;24.10;96.70;;;;;;4950150;28;20065;-86
2022/06/01 07:57:23;;;;;;;13.02;5.88;;;24.20;96.70;;;;;;5007426;28;19925;-86
2022/06/01 07:59:51;;;;;;;9.52;5.22;;;24.10;96.70;;;;;;5002274;28;20057;-85
2022/06/01 08:02:19;;;;;;;11.52;6.00;;;24.20;96.70;;;;;;5007517;28;20053;-86
2022/06/01 08:04:47;;;;;;;15.95;6.38;;;24.30;96.70;;;;;;5010259;28;21167;-86
2022/06/01 08:07:15;;;;;;;11.95;5.82;;;24.30;96.70;;;;;;5012763;28;20049;-86
2022/06/01 08:09:42;;;;;;;14.07;5.85;;;24.30;96.70;;;;;;5004934;28;20038;-86
2022/06/01 08:14:58;;;;;;;14.10;5.45;;;24.50;96.70;;;;;;5017891;28;20057;-85
2022/06/01 08:17:26;;;;;;;12.75;6.28;;;24.50;96.70;;;;;;4998471;28;20048;-85
2022/06/01 08:19:56;;;;;;;14.77;7.05;;;24.50;96.70;;;;;;5003396;28;20069;-86
2022/06/01 08:22:24;;;;;;;10.50;5.25;;;24.50;96.70;;;;;;5007605;28;20050;-85
2022/06/01 08:24:52;;;;;;;11.63;5.25;;;24.50;96.70;;;;;;5013739;28;20041;-84
2022/06/01 08:27:20;;;;;;;8.07;5.10;;;24.60;96.70;;;;;;5005214;28;20046;-85
2022/06/01 08:29:48;;;;;;;11.10;5.43;;;24.60;96.70;;;;;;4991164;28;20554;-85
2022/06/01 08:32:17;;;;;;;8.35;5.80;;;24.60;96.70;;;;;;5004465;28;20062;-86
2022/06/01 08:34:45;;;;;;;12.02;5.50;;;24.60;96.70;;;;;;5010498;28;20053;-87
2022/06/01 08:37:13;;;;;;;10.68;5.30;;;24.60;96.70;;;;;;5014482;28;20053;-86
2022/06/01 08:39:42;;;;;;;8.05;4.82;;;24.60;96.70;;;;;;4993472;28;20054;-87
2022/06/01 08:42:13;;;;;;;10.75;4.90;;;24.60;96.70;;;;;;4993744;28;20056;-86
2022/06/01 08:44:44;;;;;;;8.82;4.60;;;24.60;96.70;;;;;;4998317;28;20046;-87
2022/06/01 08:47:22;;;;;;;9.57;5.03;;;24.70;96.70;;;;;;4998499;28;20546;-86
2022/06/01 08:49:51;;;;;;;9.55;4.90;;;24.80;96.70;;;;;;5010196;28;20202;-84
2022/06/01 08:52:22;;;;;;;13.88;5.35;;;24.80;96.70;;;;;;4992793;28;20056;-85
2022/06/01 08:54:50;;;;;;;10.82;5.50;;;24.80;96.70;;;;;;5005844;28;20050;-85
2022/06/01 08:57:24;;;;;;;8.50;5.15;;;24.90;96.70;;;;;;5001550;28;20041;-85
2022/06/01 09:00:01;;;;;;;10.50;5.40;;;24.90;96.70;;;;;;5008708;28;20127;-85
2022/06/01 09:02:43;;;;;;;16.00;5.97;;;24.80;96.70;;;;;;5009397;28;20060;-85
2022/06/01 09:05:18;;;;;;;11.40;5.53;;;24.80;96.70;;;;;;5015456;28;20042;-85
2022/06/01 09:07:51;;;;;;;12.50;6.07;;;25.00;96.70;;;;;;5009517;28;20132;-85
2022/06/01 09:10:51;;;;;;;12.52;5.25;;;25.00;96.70;;;;;;5009796;28;20480;-85
2022/06/01 09:13:24;;;;;;;10.73;4.75;;;25.00;96.70;;;;;;5005756;28;20316;-84
2022/06/01 09:15:55;;;;;;;15.45;5.30;;;25.00;96.70;;;;;;4991830;28;20076;-83
2022/06/01 09:18:29;;;;;;;12.35;4.85;;;25.10;96.70;;;;;;4990814;28;21536;-84
2022/06/01 09:23:46;;;;;;;11.77;4.18;;;25.20;96.70;;;;;;5007872;28;20073;-84
2022/06/01 09:26:27;;;;;;;9.68;4.22;;;25.30;96.70;;;;;;4990241;28;20099;-86
2022/06/01 09:28:58;;;;;;;11.18;4.10;;;25.30;96.70;;;;;;5013064;28;20127;-86
2022/06/01 09:31:36;;;;;;;8.18;4.43;;;25.40;96.70;;;;;;5002239;28;20050;-85
2022/06/01 09:34:22;;;;;;;8.48;3.92;;;25.40;96.70;;;;;;4991573;28;20504;-86
2022/06/01 09:36:57;;;;;;;9.45;4.60;;;25.50;96.70;;;;;;5004922;28;20153;-86
2022/06/01 09:39:25;;;;;;;11.73;4.22;;;25.60;96.70;;;;;;4977287;28;20050;-86
2022/06/01 09:42:11;;;;;;;7.30;3.55;;;25.60;96.70;;;;;;5004603;28;20039;-86
2022/06/01 09:44:44;;;;;;;5.13;3.58;;;25.70;96.70;;;;;;4974575;28;20542;-86
2022/06/01 09:47:52;;;;;;;7.53;3.73;;;25.70;96.70;;;;;;5103552;27;20395;-84
2022/06/01 09:50:26;;;;;;;7.65;3.75;;;25.80;96.70;;;;;;5057785;28;20048;-84
2022/06/01 09:52:59;;;;;;;9.13;3.50;;;25.90;96.70;;;;;;5080577;28;20044;-84
2022/06/01 09:55:29;;;;;;;7.25;3.60;;;25.90;96.70;;;;;;5084135;28;20519;-84
2022/06/01 09:58:05;;;;;;;5.72;2.90;;;26.00;96.70;;;;;;5074842;28;20040;-83
2022/06/01 10:06:25;;;;;;;6.93;3.13;;;26.20;96.70;;;;;;5079887;28;20048;-84
2022/06/01 10:08:59;;;;;;;9.45;3.63;;;26.30;96.70;;;;;;5083724;28;20154;-84
2022/06/01 10:11:34;;;;;;;8.18;3.58;;;26.50;96.70;;;;;;5085461;28;20051;-84
2022/06/01 10:14:21;;;;;;;7.50;3.30;;;26.70;96.70;;;;;;5078281;28;20052;-84
2022/06/01 10:17:08;;;;;;;8.85;3.67;;;26.80;96.70;;;;;;5079159;28;20044;-84
2022/06/01 10:19:41;;;;;;;9.02;3.50;;;26.90;96.70;;;;;;5074094;28;20049;-84
2022/06/01 10:22:16;;;;;;;4.15;2.90;;;27.10;96.70;;;;;;5065371;28;20037;-85
2022/06/01 10:24:49;;;;;;;5.63;3.13;;;27.20;96.70;;;;;;5079232;28;20508;-85
2022/06/01 10:27:22;;;;;;;6.88;3.25;;;27.10;96.70;;;;;;5083568;28;20055;-85
2022/06/01 10:29:57;;;;;;;7.40;2.95;;;27.30;96.70;;;;;;5082749;28;20044;-84
2022/06/01 10:32:30;;;;;;;4.97;2.77;;;27.30;96.70;;;;;;5083751;28;20087;-85
2022/06/01 10:35:09;;;;;;;6.32;2.83;;;27.40;96.70;;;;;;5083175;28;20047;-84
2022/06/01 10:37:48;;;;;;;7.15;3.08;;;27.50;96.70;;;;;;5083411;28;20048;-83
2022/06/01 10:40:20;;;;;;;5.80;3.15;;;27.50;96.70;;;;;;5084777;28;20106;-83
2022/06/01 10:45:47;;;;;;;8.20;2.72;;;27.70;96.70;;;;;;5078987;28;20581;-83
2022/06/01 10:48:29;;;;;;;6.05;2.90;;;27.40;96.70;;;;;;5077275;28;20059;-83
2022/06/01 10:51:08;;;;;;;10.55;3.00;;;27.50;96.70;;;;;;5083042;28;20319;-85
2022/06/01 10:53:48;;;;;;;6.50;2.50;;;27.70;96.70;;;;;;5073797;28;20057;-85
2022/06/01 10:56:19;;;;;;;6.35;2.95;;;28.10;96.70;;;;;;5072548;28;20049;-86
2022/06/01 10:58:49;;;;;;;6.32;2.80;;;28.30;96.70;;;;;;5062353;28;20142;-83
2022/06/01 11:01:31;;;;;;;9.25;2.55;;;28.50;96.70;;;;;;5057082;28;20045;-82
2022/06/01 11:04:43;;;;;;;6.30;2.40;;;28.60;96.70;;;;;;5057466;28;20123;-83
2022/06/01 11:07:36;;;;;;;7.28;2.17;;;28.50;96.70;;;;;;5065962;28;20123;-83
2022/06/01 11:10:12;;;;;;;4.85;1.98;;;28.40;96.70;;;;;;5048543;28;20045;-83
2022/06/01 11:12:52;;;;;;;5.85;2.17;;;28.50;96.70;;;;;;5060258;28;20049;-83
2022/06/01 11:15:44;;;;;;;5.25;1.98;;;28.50;96.70;;;;;;5069671;28;20049;-83
2022/06/01 11:18:41;;;;;;;5.90;2.47;;;28.50;96.70;;;;;;5068578;28;20052;-83
2022/06/01 11:21:17;;;;;;;10.38;2.63;;;28.70;96.70;;;;;;5077809;28;20053;-84
2022/06/01 11:24:04;;;;;;;8.10;2.42;;;28.50;96.70;;;;;;5062496;28;20052;-85
2022/06/01 11:27:05;;;;;;;5.78;2.17;;;28.70;96.70;;;;;;5064148;28;20044;-84
2022/06/01 11:29:47;;;;;;;4.45;1.92;;;28.80;96.70;;;;;;5067203;28;20510;-84
2022/06/01 11:32:19;;;;;;;5.40;2.20;;;29.10;96.70;;;;;;5064699;28;20041;-84
2022/06/01 11:34:55;;;;;;;4.93;2.00;;;29.20;96.70;;;;;;5063470;28;20072;-83
2022/06/01 11:37:33;;;;;;;5.07;2.45;;;29.30;96.70;;;;;;5052635;28;20106;-83
2022/06/01 11:40:09;;;;;;;9.73;2.70;;;29.20;96.70;;;;;;5060336;28;20098;-84
2022/06/01 11:42:41;;;;;;;5.00;2.38;;;29.30;96.70;;;;;;5069081;28;20050;-83
2022/06/01 11:45:22;;;;;;;5.60;2.72;;;29.20;96.70;;;;;;5067034;28;20045;-84
2022/06/01 11:47:53;;;;;;;6.63;2.15;;;29.20;96.70;;;;;;5058363;28;20049;-83
2022/06/01 11:50:25;;;;;;;5.88;2.08;;;29.30;96.70;;;;;;5064394;28;20048;-82
2022/06/01 11:53:05;;;;;;;6.53;2.60;;;29.40;96.70;;;;;;5067247;28;20068;-82
2022/06/01 11:55:46;;;;;;;3.42;1.63;;;29.40;96.70;;;;;;5068301;28;20437;-83
2022/06/01 11:58:21;;;;;;;3.28;1.80;;;29.40;96.70;;;;;;5061259;28;21318;-82
2022/06/01 12:00:52;;;;;;;4.47;1.50;;;29.40;96.70;;;;;;5045221;28;20083;-78
2022/06/01 12:03:52;;;;;;;5.80;1.88;;;29.50;96.70;;;;;;5047195;28;20049;-84
2022/06/01 12:06:42;;;;;;;4.53;1.70;;;29.60;96.70;;;;;;5059660;28;20078;-80
2022/06/01 12:09:19;;;;;;;5.10;1.92;;;29.60;96.70;;;;;;5064227;28;20048;-79
2022/06/01 12:11:48;;;;;;;3.90;1.70;;;29.60;96.70;;;;;;5056802;28;20040;-79
2022/06/01 12:14:28;;;;;;;4.32;1.63;;;29.70;96.70;;;;;;5066269;28;20045;-82
2022/06/01 12:17:25;;;;;;;5.90;2.00;;;29.60;96.70;;;;;;5065329;28;20036;-81
2022/06/01 12:20:13;;;;;;;;;;;29.70;96.70;;;;;;5058753;28;20041;-80
2022/06/01 12:29:39;;;;;;;5.32;1.92;;;30.10;95.30;;;;;;5063911;28;20040;-79
2022/06/01 12:32:30;;;;;;;4.10;1.48;;;30.00;95.30;;;;;;5063611;28;20897;-79
2022/06/01 12:35:10;;;;;;;6.85;1.70;;;29.90;95.10;;;;;;5042906;28;20697;-79
2022/06/01 12:37:46;;;;;;;5.38;1.90;;;30.00;96.30;;;;;;5064514;28;20513;-82
2022/06/01 12:40:20;;;;;;;5.60;1.50;;;30.00;96.00;;;;;;5057382;28;20529;-81
2022/06/01 12:42:53;;;;;;;4.15;1.60;;;30.10;95.90;;;;;;5062311;28;20537;-81
2022/06/01 12:45:24;;;;;;;5.63;1.77;;;30.10;95.30;;;;;;5064630;28;20711;-80
2022/06/01 12:47:57;;;;;;;4.63;1.73;;;30.10;94.90;;;;;;5065288;28;20056;-85
2022/06/01 12:50:27;;;;;;;4.55;1.65;;;30.30;94.20;;;;;;5064722;28;20530;-81
2022/06/01 12:53:13;;;;;;;5.25;1.30;;;30.30;94.40;;;;;;5044202;28;20048;-81
2022/06/01 12:55:43;;;;;;;6.03;1.70;;;30.30;94.70;;;;;;5061353;28;20123;-83
2022/06/01 12:58:18;;;;;;;4.75;1.70;;;30.50;96.00;;;;;;5067623;28;20143;-84
2022/06/01 13:00:50;;;;;;;4.45;1.48;;;30.50;93.50;;;;;;5070599;28;20071;-87
2022/06/01 13:03:21;;;;;;;4.47;1.52;;;30.50;92.80;;;;;;5071032;28;20047;-88
2022/06/01 13:05:52;;;;;;;3.65;1.42;;;30.80;92.70;;;;;;5057739;28;20491;-87
2022/06/01 13:08:23;;;;;;;2.72;1.40;;;30.90;92.60;;;;;;5066821;28;20044;-87
2022/06/01 13:11:16;;;;;;;3.55;1.35;;;31.00;90.70;;;;;;5066818;28;21024;-87
2022/06/01 13:13:44;;;;;;;7.03;1.70;;;30.90;90.30;;;;;;5063415;28;20051;-87
2022/06/01 13:16:12;;;;;;;5.25;1.40;;;31.10;91.30;;;;;;5065379;28;20048;-87
2022/06/01 13:18:43;;;;;;;4.82;1.40;;;31.00;92.00;;;;;;5053300;28;20037;-87
2022/06/01 13:21:21;;;;;;;4.93;1.35;;;31.10;92.40;;;;;;5062272;28;20041;-87
2022/06/01 13:23:53;;;;;;;7.03;1.65;;;31.10;91.10;;;;;;5060464;28;20051;-87
2022/06/01 13:26:33;;;;;;;4.75;1.73;;;31.10;90.40;;;;;;5047381;28;20049;-87
2022/06/01 13:29:11;;;;;;;3.78;1.05;;;31.50;88.50;;;;;;5061191;28;20079;-86
2022/06/01 13:31:42;;;;;;;2.50;1.38;;;31.80;88.20;;;;;;5062228;28;20045;-87
2022/06/01 13:34:21;;;;;;;4.88;1.58;;;31.70;88.00;;;;;;5044895;28;20144;-87
2022/06/01 13:36:51;;;;;;;7.88;2.33;;;31.60;89.20;;;;;;5062273;28;20074;-88
2022/06/01 13:39:30;;;;;;;2.90;1.40;;;31.50;90.40;;;;;;5060803;28;20567;-87
2022/06/01 13:42:03;;;;;;;8.15;1.75;;;31.60;90.00;;;;;;5067885;28;20760;-87
2022/06/01 13:44:49;;;;;;;4.32;1.45;;;31.70;90.30;;;;;;5046592;28;20202;-88
2022/06/01 13:47:30;;;;;;;5.70;1.80;;;31.70;89.20;;;;;;5065002;28;20144;-88
2022/06/01 13:50:13;;;;;;;9.70;1.45;;;32.00;89.20;;;;;;5066627;28;20148;-87
2022/06/01 13:52:45;;;;;;;2.53;1.20;;;32.10;88.30;;;;;;5050615;28;20063;-87